Time;durP1;ratioP1;P1;durP2;ratioP2;P2;SDS_P1;SDS_P2;PMS_P1;PMS_P2;Temp;Humidity;BMP_temperature;BMP_pressure;BME280_temperature;BME280_humidity;BME280_pressure;Samples;Min_cycle;Max_cycle;Signal;HPM_P1;HPM_P2
2022/11/29 00:00:28;;;;;;;0.00;0.00;;;;;;;;;;5022086;28;20052;-77
2022/11/29 00:02:55;;;;;;;0.00;0.00;;;;;;;;;;5005254;28;20022;-76
2022/11/29 00:05:24;;;;;;;0.00;0.00;;;;;;;;;;5025664;28;20026;-76
2022/11/29 00:07:50;;;;;;;0.00;0.00;;;;;;;;;;5005544;28;20033;-76
2022/11/29 00:10:17;;;;;;;0.00;0.00;;;;;;;;;;5006397;28;20029;-76
2022/11/29 00:12:43;;;;;;;0.00;0.00;;;;;;;;;;5023910;28;20033;-76
2022/11/29 00:15:09;;;;;;;0.00;0.00;;;;;;;;;;5022376;28;20029;-76
2022/11/29 00:17:36;;;;;;;0.00;0.00;;;;;;;;;;5005034;28;20057;-76
2022/11/29 00:20:02;;;;;;;0.00;0.00;;;;;;;;;;5025153;28;20030;-76
2022/11/29 00:22:29;;;;;;;0.00;0.00;;;;;;;;;;5004455;28;20465;-77
2022/11/29 00:24:55;;;;;;;0.00;0.00;;;;;;;;;;5005446;28;20033;-77
2022/11/29 00:27:21;;;;;;;0.00;0.00;;;;;;;;;;5024025;28;20045;-78
2022/11/29 00:29:48;;;;;;;0.00;0.00;;;;;;;;;;5042623;28;20014;-78
2022/11/29 00:32:14;;;;;;;0.00;0.00;;;;;;;;;;5017189;28;20029;-76
2022/11/29 00:34:40;;;;;;;0.00;0.00;;;;;;;;;;5019992;28;20022;-77
2022/11/29 00:37:07;;;;;;;0.00;0.00;;;;;;;;;;5004841;28;20044;-76
2022/11/29 00:39:33;;;;;;;0.00;0.00;;;;;;;;;;5005054;28;20034;-76
2022/11/29 00:41:59;;;;;;;0.00;0.00;;;;;;;;;;5032655;28;20034;-76
2022/11/29 00:44:26;;;;;;;0.00;0.00;;;;;;;;;;5035872;28;20138;-76
2022/11/29 00:46:52;;;;;;;0.00;0.00;;;;;;;;;;5025875;28;20022;-75
2022/11/29 00:49:18;;;;;;;0.00;0.00;;;;;;;;;;5025070;28;20033;-76
2022/11/29 00:51:45;;;;;;;0.00;0.00;;;;;;;;;;5024905;28;20033;-77
2022/11/29 00:54:12;;;;;;;0.00;0.00;;;;;;;;;;5039229;28;20082;-75
2022/11/29 00:56:38;;;;;;;0.00;0.00;;;;;;;;;;5022063;28;20081;-75
2022/11/29 00:59:05;;;;;;;0.00;0.00;;;;;;;;;;5020577;28;20037;-77
2022/11/29 01:01:31;;;;;;;0.00;0.00;;;;;;;;;;5018366;28;20054;-78
2022/11/29 01:03:57;;;;;;;0.00;0.00;;;;;;;;;;5040081;28;20037;-77
2022/11/29 01:06:24;;;;;;;0.00;0.00;;;;;;;;;;5040534;28;20021;-77
2022/11/29 01:08:50;;;;;;;0.00;0.00;;;;;;;;;;5021103;28;20351;-76
2022/11/29 01:11:18;;;;;;;0.00;0.00;;;;;;;;;;5022239;28;20037;-76
2022/11/29 01:13:45;;;;;;;0.00;0.00;;;;;;;;;;5021323;28;20063;-77
2022/11/29 01:16:11;;;;;;;0.00;0.00;;;;;;;;;;5054412;28;20080;-75
2022/11/29 01:18:37;;;;;;;0.00;0.00;;;;;;;;;;5029608;28;20038;-77
2022/11/29 01:21:06;;;;;;;0.00;0.00;;;;;;;;;;5017681;28;20025;-77
2022/11/29 01:23:33;;;;;;;0.00;0.00;;;;;;;;;;5008442;28;20029;-77
2022/11/29 01:26:05;;;;;;;0.00;0.00;;;;;;;;;;5027153;28;20061;-77
2022/11/29 01:28:32;;;;;;;0.00;0.00;;;;;;;;;;5015693;28;20120;-77
2022/11/29 01:30:58;;;;;;;0.00;0.00;;;;;;;;;;5004061;28;20033;-77
2022/11/29 01:33:24;;;;;;;0.00;0.00;;;;;;;;;;5024231;28;20049;-79
2022/11/29 01:35:52;;;;;;;0.00;0.00;;;;;;;;;;5027278;28;20037;-78
2022/11/29 01:38:19;;;;;;;0.00;0.00;;;;;;;;;;5019263;28;20036;-77
2022/11/29 01:40:45;;;;;;;0.00;0.00;;;;;;;;;;5022820;28;20026;-77
2022/11/29 01:43:16;;;;;;;0.00;0.00;;;;;;;;;;5001712;28;20080;-78
2022/11/29 01:45:43;;;;;;;0.00;0.00;;;;;;;;;;5007717;28;20484;-78
2022/11/29 01:48:10;;;;;;;0.00;0.00;;;;;;;;;;5028836;28;20026;-77
2022/11/29 01:50:38;;;;;;;0.00;0.00;;;;;;;;;;5009224;28;20124;-78
2022/11/29 01:53:04;;;;;;;0.00;0.00;;;;;;;;;;5006556;28;20029;-78
2022/11/29 01:55:31;;;;;;;0.00;0.00;;;;;;;;;;5006220;28;20088;-78
2022/11/29 01:57:59;;;;;;;0.00;0.00;;;;;;;;;;5003349;28;20045;-78
2022/11/29 02:00:25;;;;;;;0.00;0.00;;;;;;;;;;5019474;28;20050;-78
2022/11/29 02:02:55;;;;;;;0.00;0.00;;;;;;;;;;5009058;28;20067;-78
2022/11/29 02:05:21;;;;;;;0.00;0.00;;;;;;;;;;5006199;28;20029;-80
2022/11/29 02:07:50;;;;;;;0.00;0.00;;;;;;;;;;5004098;28;20535;-78
2022/11/29 02:10:17;;;;;;;0.00;0.00;;;;;;;;;;5009806;28;20079;-78
2022/11/29 02:13:15;;;;;;;0.00;0.00;;;;;;;;;;5013156;28;20037;-78
2022/11/29 02:15:45;;;;;;;0.00;0.00;;;;;;;;;;4964542;28;20090;-76
2022/11/29 02:18:23;;;;;;;0.00;0.00;;;;;;;;;;5026795;28;20033;-78
2022/11/29 02:21:08;;;;;;;0.00;0.00;;;;;;;;;;5022740;28;20026;-76
2022/11/29 02:23:46;;;;;;;0.00;0.00;;;;;;;;;;5017630;28;20033;-76
2022/11/29 02:26:21;;;;;;;0.00;0.00;;;;;;;;;;5005991;28;20022;-76
2022/11/29 02:28:53;;;;;;;0.00;0.00;;;;;;;;;;5003081;28;20439;-76
2022/11/29 02:31:38;;;;;;;0.00;0.00;;;;;;;;;;5008084;28;20053;-76
2022/11/29 02:34:37;;;;;;;0.00;0.00;;;;;;;;;;5023697;28;20121;-78
2022/11/29 02:37:36;;;;;;;0.00;0.00;;;;;;;;;;5023794;28;20040;-76
2022/11/29 02:40:11;;;;;;;0.00;0.00;;;;;;;;;;4986971;28;20049;-77
2022/11/29 02:42:49;;;;;;;0.00;0.00;;;;;;;;;;5023242;28;20041;-76
2022/11/29 02:45:25;;;;;;;0.00;0.00;;;;;;;;;;5025808;28;20038;-75
2022/11/29 02:47:51;;;;;;;0.00;0.00;;;;;;;;;;5005058;28;20038;-75
2022/11/29 02:50:17;;;;;;;0.00;0.00;;;;;;;;;;4996731;28;20059;-76
2022/11/29 02:52:44;;;;;;;0.00;0.00;;;;;;;;;;5025369;28;20031;-76
2022/11/29 02:55:43;;;;;;;0.00;0.00;;;;;;;;;;5002593;28;20030;-76
2022/11/29 02:58:20;;;;;;;0.00;0.00;;;;;;;;;;4966678;28;20041;-76
2022/11/29 03:00:51;;;;;;;0.00;0.00;;;;;;;;;;5007919;28;20081;-76
2022/11/29 03:03:17;;;;;;;0.00;0.00;;;;;;;;;;5027635;28;20063;-76
2022/11/29 03:06:02;;;;;;;0.00;0.00;;;;;;;;;;5006307;28;20057;-77
2022/11/29 03:08:40;;;;;;;0.00;0.00;;;;;;;;;;5004161;28;20036;-81
2022/11/29 03:11:06;;;;;;;0.00;0.00;;;;;;;;;;5023292;28;20022;-81
2022/11/29 03:13:32;;;;;;;0.00;0.00;;;;;;;;;;5007112;28;20044;-80
2022/11/29 03:16:08;;;;;;;0.00;0.00;;;;;;;;;;5011880;28;20100;-79
2022/11/29 03:18:49;;;;;;;0.00;0.00;;;;;;;;;;5029355;28;20044;-80
2022/11/29 03:21:19;;;;;;;0.00;0.00;;;;;;;;;;5007682;28;20030;-79
2022/11/29 03:23:47;;;;;;;0.00;0.00;;;;;;;;;;5009903;28;20038;-78
2022/11/29 03:26:13;;;;;;;0.00;0.00;;;;;;;;;;5006951;28;20140;-79
2022/11/29 03:28:40;;;;;;;0.00;0.00;;;;;;;;;;5024152;28;20026;-79
2022/11/29 03:31:10;;;;;;;0.00;0.00;;;;;;;;;;5006146;28;20431;-82
2022/11/29 03:33:36;;;;;;;0.00;0.00;;;;;;;;;;5032087;28;20058;-80
2022/11/29 03:36:18;;;;;;;0.00;0.00;;;;;;;;;;5024844;28;20468;-82
2022/11/29 03:38:47;;;;;;;0.00;0.00;;;;;;;;;;5014221;28;20490;-79
2022/11/29 03:41:13;;;;;;;0.00;0.00;;;;;;;;;;5015782;28;20037;-82
2022/11/29 03:43:42;;;;;;;0.00;0.00;;;;;;;;;;5027640;28;20085;-80
2022/11/29 03:46:14;;;;;;;0.00;0.00;;;;;;;;;;5009038;28;20034;-81
2022/11/29 03:48:44;;;;;;;0.00;0.00;;;;;;;;;;5005512;28;20030;-79
2022/11/29 03:51:16;;;;;;;0.00;0.00;;;;;;;;;;5007640;28;20029;-80
2022/11/29 03:53:55;;;;;;;0.00;0.00;;;;;;;;;;5006042;28;20064;-76
2022/11/29 03:56:25;;;;;;;0.00;0.00;;;;;;;;;;5005902;28;20029;-78
2022/11/29 03:59:00;;;;;;;0.00;0.00;;;;;;;;;;5011061;28;20045;-77
2022/11/29 04:01:33;;;;;;;0.00;0.00;;;;;;;;;;5006557;28;20100;-79
2022/11/29 04:04:15;;;;;;;0.00;0.00;;;;;;;;;;5002857;28;20081;-81
2022/11/29 04:07:00;;;;;;;0.00;0.00;;;;;;;;;;5009481;28;20049;-81
2022/11/29 04:09:38;;;;;;;0.00;0.00;;;;;;;;;;5000963;28;20432;-81
2022/11/29 04:12:15;;;;;;;0.00;0.00;;;;;;;;;;5008988;28;20026;-79
2022/11/29 04:15:00;;;;;;;0.00;0.00;;;;;;;;;;5006296;28;20030;-79
2022/11/29 04:17:30;;;;;;;0.00;0.00;;;;;;;;;;5009265;28;20030;-79
2022/11/29 04:20:02;;;;;;;0.00;0.00;;;;;;;;;;5010290;28;20034;-79
2022/11/29 04:22:31;;;;;;;0.00;0.00;;;;;;;;;;4994962;28;20137;-81
2022/11/29 04:25:10;;;;;;;0.00;0.00;;;;;;;;;;5000568;28;20121;-79
2022/11/29 04:27:41;;;;;;;0.00;0.00;;;;;;;;;;4999210;28;20030;-79
2022/11/29 04:30:24;;;;;;;0.00;0.00;;;;;;;;;;4995756;28;20088;-78
2022/11/29 04:32:57;;;;;;;0.00;0.00;;;;;;;;;;4999757;28;20026;-81
2022/11/29 04:35:31;;;;;;;0.00;0.00;;;;;;;;;;4998775;28;20099;-83
2022/11/29 04:38:16;;;;;;;0.00;0.00;;;;;;;;;;4998755;28;20124;-79
2022/11/29 04:40:48;;;;;;;0.00;0.00;;;;;;;;;;4999952;28;20092;-80
2022/11/29 04:43:33;;;;;;;0.00;0.00;;;;;;;;;;4998779;28;20094;-79
2022/11/29 04:46:18;;;;;;;0.00;0.00;;;;;;;;;;5004927;28;20045;-79
2022/11/29 04:48:51;;;;;;;0.00;0.00;;;;;;;;;;5003939;28;20034;-79
2022/11/29 04:51:36;;;;;;;0.00;0.00;;;;;;;;;;4998010;28;20346;-79
2022/11/29 04:54:13;;;;;;;0.00;0.00;;;;;;;;;;5001048;28;20045;-82
2022/11/29 04:56:45;;;;;;;0.00;0.00;;;;;;;;;;4997678;28;20034;-80
2022/11/29 04:59:14;;;;;;;0.00;0.00;;;;;;;;;;5006146;28;20033;-82
2022/11/29 05:01:41;;;;;;;0.00;0.00;;;;;;;;;;5002643;28;20114;-81
2022/11/29 05:04:17;;;;;;;0.00;0.00;;;;;;;;;;4997087;28;20169;-82
2022/11/29 05:07:03;;;;;;;0.00;0.00;;;;;;;;;;4998905;28;20034;-82
2022/11/29 05:09:48;;;;;;;0.00;0.00;;;;;;;;;;4958420;28;20033;-84
2022/11/29 05:12:18;;;;;;;0.00;0.00;;;;;;;;;;5004324;28;20426;-79
2022/11/29 05:15:01;;;;;;;0.00;0.00;;;;;;;;;;5001160;28;21590;-83
2022/11/29 05:17:31;;;;;;;0.00;0.00;;;;;;;;;;5000136;28;20125;-88
2022/11/29 05:23:18;;;;;;;0.00;0.00;;;;;;;;;;5005590;28;20136;-89
2022/11/29 05:25:50;;;;;;;0.00;0.00;;;;;;;;;;5002122;28;20040;-87
2022/11/29 05:28:41;;;;;;;0.00;0.00;;;;;;;;;;5004455;28;20026;-87
2022/11/29 05:34:23;;;;;;;0.00;0.00;;;;;;;;;;5003777;28;20520;-88
2022/11/29 05:37:11;;;;;;;0.00;0.00;;;;;;;;;;5007122;28;20057;-90
2022/11/29 05:40:02;;;;;;;0.00;0.00;;;;;;;;;;5006647;28;20161;-89
2022/11/29 05:42:35;;;;;;;0.00;0.00;;;;;;;;;;5009456;28;20034;-90
2022/11/29 05:45:29;;;;;;;0.00;0.00;;;;;;;;;;5007140;28;20088;-90
2022/11/29 05:48:47;;;;;;;;;;;;;;;;;;;;;
2022/11/29 05:51:20;;;;;;;0.00;0.00;;;;;;;;;;4931297;29;20040;-93
2022/11/29 05:57:15;;;;;;;0.00;0.00;;;;;;;;;;4937774;29;20056;-87
2022/11/29 05:59:44;;;;;;;0.00;0.00;;;;;;;;;;4934929;28;20400;-90
2022/11/29 06:02:30;;;;;;;0.00;0.00;;;;;;;;;;4994339;28;20038;-87
2022/11/29 06:04:57;;;;;;;0.00;0.00;;;;;;;;;;4994503;28;20027;-86
2022/11/29 06:07:26;;;;;;;0.00;0.00;;;;;;;;;;4996199;28;20022;-84
2022/11/29 06:09:57;;;;;;;0.00;0.00;;;;;;;;;;4986937;28;20035;-80
2022/11/29 06:12:29;;;;;;;0.00;0.00;;;;;;;;;;4980259;28;20026;-81
2022/11/29 06:15:15;;;;;;;0.00;0.00;;;;;;;;;;4991459;28;20477;-82
2022/11/29 06:17:51;;;;;;;0.00;0.00;;;;;;;;;;5006501;28;20027;-84
2022/11/29 06:20:36;;;;;;;0.00;0.00;;;;;;;;;;4988901;28;20021;-82
2022/11/29 06:23:27;;;;;;;0.00;0.00;;;;;;;;;;4994871;28;20034;-83
2022/11/29 06:26:08;;;;;;;0.00;0.00;;;;;;;;;;4988740;28;20936;-84
2022/11/29 06:28:50;;;;;;;0.00;0.00;;;;;;;;;;4990505;28;20064;-82
2022/11/29 06:31:29;;;;;;;0.00;0.00;;;;;;;;;;4981904;28;20035;-81
2022/11/29 06:34:11;;;;;;;0.00;0.00;;;;;;;;;;4989099;28;20030;-84
2022/11/29 06:36:53;;;;;;;0.00;0.00;;;;;;;;;;4988589;28;20023;-81
2022/11/29 06:39:20;;;;;;;0.00;0.00;;;;;;;;;;4983677;28;20050;-82
2022/11/29 06:41:47;;;;;;;0.00;0.00;;;;;;;;;;4991088;28;20033;-81
2022/11/29 06:44:14;;;;;;;0.00;0.00;;;;;;;;;;4988753;28;20038;-81
2022/11/29 06:46:46;;;;;;;0.00;0.00;;;;;;;;;;4991826;28;20389;-81
2022/11/29 06:49:25;;;;;;;0.00;0.00;;;;;;;;;;4988489;28;20030;-82
2022/11/29 06:52:06;;;;;;;0.00;0.00;;;;;;;;;;4995395;28;20023;-81
2022/11/29 06:54:48;;;;;;;0.00;0.00;;;;;;;;;;5000113;28;20389;-81
2022/11/29 06:57:17;;;;;;;0.00;0.00;;;;;;;;;;4996338;28;20022;-81
2022/11/29 06:59:44;;;;;;;0.00;0.00;;;;;;;;;;4994055;28;20026;-82
2022/11/29 07:02:29;;;;;;;0.00;0.00;;;;;;;;;;5007426;28;20037;-83
2022/11/29 07:05:13;;;;;;;0.00;0.00;;;;;;;;;;5007421;28;20048;-82
2022/11/29 07:07:41;;;;;;;0.00;0.00;;;;;;;;;;5004459;28;20044;-83
2022/11/29 07:10:13;;;;;;;0.00;0.00;;;;;;;;;;4999176;28;20026;-83
2022/11/29 07:12:39;;;;;;;0.00;0.00;;;;;;;;;;4999411;28;20021;-83
2022/11/29 07:15:06;;;;;;;0.00;0.00;;;;;;;;;;5020475;28;20112;-78
2022/11/29 07:17:38;;;;;;;0.00;0.00;;;;;;;;;;5018804;28;20030;-85
2022/11/29 07:20:22;;;;;;;0.00;0.00;;;;;;;;;;4998638;28;20076;-85
2022/11/29 07:23:07;;;;;;;0.00;0.00;;;;;;;;;;5003564;28;20395;-81
2022/11/29 07:25:52;;;;;;;0.00;0.00;;;;;;;;;;5006645;28;20175;-80
2022/11/29 07:28:30;;;;;;;0.00;0.00;;;;;;;;;;5015851;28;20438;-83
2022/11/29 07:31:04;;;;;;;0.00;0.00;;;;;;;;;;5020049;28;20026;-82
2022/11/29 07:33:46;;;;;;;0.00;0.00;;;;;;;;;;5001855;28;20029;-83
2022/11/29 07:36:22;;;;;;;0.00;0.00;;;;;;;;;;5002048;28;20029;-81
2022/11/29 07:39:07;;;;;;;0.00;0.00;;;;;;;;;;5001959;28;20574;-81
2022/11/29 07:41:33;;;;;;;0.00;0.00;;;;;;;;;;5001604;28;20037;-81
2022/11/29 07:43:59;;;;;;;0.00;0.00;;;;;;;;;;4996654;28;20034;-80
2022/11/29 07:46:27;;;;;;;0.00;0.00;;;;;;;;;;5004395;28;20196;-78
2022/11/29 07:48:53;;;;;;;0.00;0.00;;;;;;;;;;5018094;28;20105;-82
2022/11/29 07:51:20;;;;;;;0.00;0.00;;;;;;;;;;5020570;28;20040;-81
2022/11/29 07:53:46;;;;;;;0.00;0.00;;;;;;;;;;5022490;28;20029;-82
2022/11/29 07:56:15;;;;;;;0.00;0.00;;;;;;;;;;5008341;28;20040;-81
2022/11/29 07:58:41;;;;;;;0.00;0.00;;;;;;;;;;5004758;28;20064;-82
2022/11/29 08:01:08;;;;;;;0.00;0.00;;;;;;;;;;5008581;28;20057;-84
2022/11/29 08:03:34;;;;;;;0.00;0.00;;;;;;;;;;5026537;28;20045;-84
2022/11/29 08:06:01;;;;;;;0.00;0.00;;;;;;;;;;5042083;28;20026;-83
2022/11/29 08:08:28;;;;;;;0.00;0.00;;;;;;;;;;5008944;28;20029;-80
2022/11/29 08:10:54;;;;;;;0.00;0.00;;;;;;;;;;5012969;28;20068;-84
2022/11/29 08:13:21;;;;;;;0.00;0.00;;;;;;;;;;5021617;28;20525;-79
2022/11/29 08:15:47;;;;;;;0.00;0.00;;;;;;;;;;5032503;28;20045;-83
2022/11/29 08:18:15;;;;;;;0.00;0.00;;;;;;;;;;5029327;28;20045;-78
2022/11/29 08:20:41;;;;;;;0.00;0.00;;;;;;;;;;5002970;28;21390;-82
2022/11/29 08:23:35;;;;;;;0.00;0.00;;;;;;;;;;5019533;28;20121;-80
2022/11/29 08:26:02;;;;;;;0.00;0.00;;;;;;;;;;5025816;28;20095;-83
2022/11/29 08:28:29;;;;;;;0.00;0.00;;;;;;;;;;5004817;28;20040;-80
2022/11/29 08:31:02;;;;;;;0.00;0.00;;;;;;;;;;5007796;28;20041;-83
2022/11/29 08:33:28;;;;;;;0.00;0.00;;;;;;;;;;5008830;28;20034;-81
2022/11/29 08:35:55;;;;;;;0.00;0.00;;;;;;;;;;5004070;28;20108;-82
2022/11/29 08:38:21;;;;;;;0.00;0.00;;;;;;;;;;5004199;28;20392;-82
2022/11/29 08:40:48;;;;;;;0.00;0.00;;;;;;;;;;5002173;28;20074;-79
2022/11/29 08:43:14;;;;;;;0.00;0.00;;;;;;;;;;5018022;28;20026;-84
2022/11/29 08:45:40;;;;;;;0.00;0.00;;;;;;;;;;5002869;28;20047;-85
2022/11/29 08:48:06;;;;;;;0.00;0.00;;;;;;;;;;5003635;28;20056;-84
2022/11/29 08:50:42;;;;;;;0.00;0.00;;;;;;;;;;5000564;28;20026;-85
2022/11/29 08:55:58;;;;;;;0.00;0.00;;;;;;;;;;5018801;28;20068;-83
2022/11/29 08:58:25;;;;;;;0.00;0.00;;;;;;;;;;5025643;28;20479;-83
2022/11/29 09:01:19;;;;;;;0.00;0.00;;;;;;;;;;5006669;28;20049;-84
2022/11/29 09:03:58;;;;;;;0.00;0.00;;;;;;;;;;5009729;28;20033;-77
2022/11/29 09:06:25;;;;;;;0.00;0.00;;;;;;;;;;5008943;28;20021;-78
2022/11/29 09:08:55;;;;;;;0.00;0.00;;;;;;;;;;5009301;28;20172;-77
2022/11/29 09:11:21;;;;;;;0.00;0.00;;;;;;;;;;5006261;28;20026;-76
2022/11/29 09:13:52;;;;;;;0.00;0.00;;;;;;;;;;5007738;28;20104;-77
2022/11/29 09:16:20;;;;;;;0.00;0.00;;;;;;;;;;5005151;28;20029;-77
2022/11/29 09:18:50;;;;;;;0.00;0.00;;;;;;;;;;5021886;28;20030;-76
2022/11/29 09:21:17;;;;;;;0.00;0.00;;;;;;;;;;5007779;28;20507;-81
2022/11/29 09:23:44;;;;;;;0.00;0.00;;;;;;;;;;5006299;28;20040;-76
2022/11/29 09:26:11;;;;;;;0.00;0.00;;;;;;;;;;5026568;28;20041;-77
2022/11/29 09:28:38;;;;;;;0.00;0.00;;;;;;;;;;5011693;28;20430;-82
2022/11/29 09:31:08;;;;;;;0.00;0.00;;;;;;;;;;5015163;28;20035;-77
2022/11/29 09:33:35;;;;;;;0.00;0.00;;;;;;;;;;5009070;28;20129;-77
2022/11/29 09:36:01;;;;;;;0.00;0.00;;;;;;;;;;5024663;28;20030;-78
2022/11/29 09:38:28;;;;;;;0.00;0.00;;;;;;;;;;5004639;28;20112;-77
2022/11/29 09:41:02;;;;;;;0.00;0.00;;;;;;;;;;5018898;28;20021;-79
2022/11/29 09:43:46;;;;;;;0.00;0.00;;;;;;;;;;5002617;28;20021;-77
2022/11/29 09:46:19;;;;;;;0.00;0.00;;;;;;;;;;5005757;28;20022;-77
2022/11/29 09:48:51;;;;;;;0.00;0.00;;;;;;;;;;5024060;28;20450;-76
2022/11/29 09:51:22;;;;;;;0.00;0.00;;;;;;;;;;5009997;28;20388;-76
2022/11/29 09:56:54;;;;;;;0.00;0.00;;;;;;;;;;5020426;28;20437;-79
2022/11/29 09:59:28;;;;;;;0.00;0.00;;;;;;;;;;5022679;28;20156;-76
2022/11/29 10:02:14;;;;;;;0.00;0.00;;;;;;;;;;5026596;28;20088;-74
2022/11/29 10:04:43;;;;;;;0.00;0.00;;;;;;;;;;5009286;28;20061;-76
2022/11/29 10:07:12;;;;;;;0.00;0.00;;;;;;;;;;5003703;28;20476;-77
2022/11/29 10:09:43;;;;;;;0.00;0.00;;;;;;;;;;5006449;28;21178;-77
2022/11/29 10:12:10;;;;;;;0.00;0.00;;;;;;;;;;5006320;28;20039;-76
2022/11/29 10:14:46;;;;;;;0.00;0.00;;;;;;;;;;5022190;28;20036;-76
2022/11/29 10:17:34;;;;;;;0.00;0.00;;;;;;;;;;5032000;28;20056;-75
2022/11/29 10:20:19;;;;;;;0.00;0.00;;;;;;;;;;5008492;28;20122;-77
2022/11/29 10:23:05;;;;;;;0.00;0.00;;;;;;;;;;5001593;28;20121;-78
2022/11/29 10:25:35;;;;;;;0.00;0.00;;;;;;;;;;5005238;28;20129;-78
2022/11/29 10:28:09;;;;;;;0.00;0.00;;;;;;;;;;5006819;28;20037;-76
2022/11/29 10:30:35;;;;;;;0.00;0.00;;;;;;;;;;5005488;28;20132;-76
2022/11/29 10:33:02;;;;;;;0.00;0.00;;;;;;;;;;5029050;28;20025;-78
2022/11/29 10:35:29;;;;;;;0.00;0.00;;;;;;;;;;5003124;28;20033;-78
2022/11/29 10:37:58;;;;;;;0.00;0.00;;;;;;;;;;4999678;28;20030;-82
2022/11/29 10:40:33;;;;;;;0.00;0.00;;;;;;;;;;5004510;28;20357;-80
2022/11/29 10:43:03;;;;;;;0.00;0.00;;;;;;;;;;5018774;28;20492;-81
2022/11/29 10:45:34;;;;;;;0.00;0.00;;;;;;;;;;5004610;28;20036;-81
2022/11/29 10:48:06;;;;;;;0.00;0.00;;;;;;;;;;5020807;28;20038;-81
2022/11/29 10:50:34;;;;;;;0.00;0.00;;;;;;;;;;5007756;28;20025;-80
2022/11/29 10:53:03;;;;;;;0.00;0.00;;;;;;;;;;5020481;28;20064;-77
2022/11/29 10:55:34;;;;;;;0.00;0.00;;;;;;;;;;4998732;28;20034;-85
2022/11/29 10:58:08;;;;;;;0.00;0.00;;;;;;;;;;5000645;28;20159;-86
2022/11/29 11:00:51;;;;;;;0.00;0.00;;;;;;;;;;5002851;28;20041;-85
2022/11/29 11:03:35;;;;;;;0.00;0.00;;;;;;;;;;5021848;28;20029;-80
2022/11/29 11:06:10;;;;;;;0.00;0.00;;;;;;;;;;5008929;28;20045;-80
2022/11/29 11:08:38;;;;;;;0.00;0.00;;;;;;;;;;5005742;28;20022;-79
2022/11/29 11:11:06;;;;;;;0.00;0.00;;;;;;;;;;5003270;28;20087;-78
2022/11/29 11:13:32;;;;;;;0.00;0.00;;;;;;;;;;5020961;28;20550;-80
2022/11/29 11:16:10;;;;;;;0.00;0.00;;;;;;;;;;5003435;28;20633;-78
2022/11/29 11:18:37;;;;;;;0.00;0.00;;;;;;;;;;5006577;28;20026;-81
2022/11/29 11:21:04;;;;;;;0.00;0.00;;;;;;;;;;5027340;28;20116;-80
2022/11/29 11:23:31;;;;;;;0.00;0.00;;;;;;;;;;5029196;28;20030;-79
2022/11/29 11:26:02;;;;;;;0.00;0.00;;;;;;;;;;5005120;28;20441;-81
2022/11/29 11:28:48;;;;;;;0.00;0.00;;;;;;;;;;5005695;28;20111;-75
2022/11/29 11:31:15;;;;;;;0.00;0.00;;;;;;;;;;5020795;28;20022;-81
2022/11/29 11:33:42;;;;;;;0.00;0.00;;;;;;;;;;5025640;28;20096;-82
2022/11/29 11:36:26;;;;;;;0.00;0.00;;;;;;;;;;5006613;28;20059;-82
2022/11/29 11:38:52;;;;;;;0.00;0.00;;;;;;;;;;5012539;28;20033;-81
2022/11/29 11:41:21;;;;;;;0.00;0.00;;;;;;;;;;5005654;28;20156;-82
2022/11/29 11:43:52;;;;;;;0.00;0.00;;;;;;;;;;5023813;28;20034;-81
2022/11/29 11:46:19;;;;;;;0.00;0.00;;;;;;;;;;5007694;28;20030;-79
2022/11/29 11:48:45;;;;;;;0.00;0.00;;;;;;;;;;5007754;28;20499;-80
2022/11/29 11:51:24;;;;;;;0.00;0.00;;;;;;;;;;5000649;28;20022;-83
2022/11/29 11:53:55;;;;;;;0.00;0.00;;;;;;;;;;5007364;28;20035;-86
2022/11/29 11:56:22;;;;;;;0.00;0.00;;;;;;;;;;5023501;28;20538;-83
2022/11/29 11:58:51;;;;;;;0.00;0.00;;;;;;;;;;5025607;28;20021;-84
2022/11/29 12:01:29;;;;;;;0.00;0.00;;;;;;;;;;5000279;28;20378;-87
2022/11/29 12:04:00;;;;;;;0.00;0.00;;;;;;;;;;5004587;28;20033;-83
2022/11/29 12:06:40;;;;;;;0.00;0.00;;;;;;;;;;5002036;28;20042;-84
2022/11/29 12:09:15;;;;;;;0.00;0.00;;;;;;;;;;5003595;28;20033;-83
2022/11/29 12:12:17;;;;;;;0.00;0.00;;;;;;;;;;5003444;28;20049;-77
2022/11/29 12:14:46;;;;;;;0.00;0.00;;;;;;;;;;4999607;28;20030;-74
2022/11/29 12:17:15;;;;;;;0.00;0.00;;;;;;;;;;5015010;28;20034;-75
2022/11/29 12:19:49;;;;;;;0.00;0.00;;;;;;;;;;5002964;28;20636;-75
2022/11/29 12:22:18;;;;;;;0.00;0.00;;;;;;;;;;5002323;28;20523;-75
2022/11/29 12:24:51;;;;;;;0.00;0.00;;;;;;;;;;5012596;28;20527;-74
2022/11/29 12:27:17;;;;;;;0.00;0.00;;;;;;;;;;5001887;28;20022;-75
2022/11/29 12:29:44;;;;;;;0.00;0.00;;;;;;;;;;4999045;28;20049;-75
2022/11/29 12:32:32;;;;;;;0.00;0.00;;;;;;;;;;4995964;28;20035;-73
2022/11/29 12:35:08;;;;;;;0.00;0.00;;;;;;;;;;5001169;28;20085;-75
2022/11/29 12:37:35;;;;;;;0.00;0.00;;;;;;;;;;5012764;28;20144;-76
2022/11/29 12:40:20;;;;;;;0.00;0.00;;;;;;;;;;5001357;28;20436;-76
2022/11/29 12:42:57;;;;;;;0.00;0.00;;;;;;;;;;5005810;28;20056;-75
2022/11/29 12:45:29;;;;;;;0.00;0.00;;;;;;;;;;5000204;28;20081;-83
2022/11/29 12:48:08;;;;;;;0.00;0.00;;;;;;;;;;5009234;28;20032;-83
2022/11/29 12:50:37;;;;;;;0.00;0.00;;;;;;;;;;5015269;28;20101;-84
2022/11/29 12:53:06;;;;;;;0.00;0.00;;;;;;;;;;5014151;28;20037;-84
2022/11/29 12:55:41;;;;;;;0.00;0.00;;;;;;;;;;5003271;28;20077;-82
2022/11/29 12:58:14;;;;;;;0.00;0.00;;;;;;;;;;4993120;28;20110;-83
2022/11/29 13:00:46;;;;;;;0.00;0.00;;;;;;;;;;5004571;28;20129;-82
2022/11/29 13:03:31;;;;;;;0.00;0.00;;;;;;;;;;5005178;28;20376;-81
2022/11/29 13:06:16;;;;;;;0.00;0.00;;;;;;;;;;5012582;28;20036;-82
2022/11/29 13:08:49;;;;;;;0.00;0.00;;;;;;;;;;5005433;28;20693;-83
2022/11/29 13:11:18;;;;;;;0.00;0.00;;;;;;;;;;5028272;28;20026;-81
2022/11/29 13:13:44;;;;;;;0.00;0.00;;;;;;;;;;5004237;28;20022;-82
2022/11/29 13:16:17;;;;;;;0.00;0.00;;;;;;;;;;5006820;28;20431;-81
2022/11/29 13:19:03;;;;;;;0.00;0.00;;;;;;;;;;5005498;28;20034;-82
2022/11/29 13:21:50;;;;;;;0.00;0.00;;;;;;;;;;5020696;28;20431;-82
2022/11/29 13:24:31;;;;;;;0.00;0.00;;;;;;;;;;5003459;28;20037;-83
2022/11/29 13:26:58;;;;;;;0.00;0.00;;;;;;;;;;5029493;28;20033;-83
2022/11/29 13:29:25;;;;;;;0.00;0.00;;;;;;;;;;5006222;28;20022;-81
2022/11/29 13:31:52;;;;;;;0.00;0.00;;;;;;;;;;5010757;28;20518;-82
2022/11/29 13:34:28;;;;;;;0.00;0.00;;;;;;;;;;5024491;28;20113;-82
2022/11/29 13:37:14;;;;;;;0.00;0.00;;;;;;;;;;5008253;28;20444;-83
2022/11/29 13:39:43;;;;;;;0.00;0.00;;;;;;;;;;5006212;28;20025;-83
2022/11/29 13:42:28;;;;;;;0.00;0.00;;;;;;;;;;5023009;28;20042;-76
2022/11/29 13:45:13;;;;;;;0.00;0.00;;;;;;;;;;5008817;28;20427;-77
2022/11/29 13:47:53;;;;;;;0.00;0.00;;;;;;;;;;5015409;28;20116;-77
2022/11/29 13:50:38;;;;;;;0.00;0.00;;;;;;;;;;5023498;28;20034;-75
2022/11/29 13:53:11;;;;;;;0.00;0.00;;;;;;;;;;5007416;28;20029;-82
2022/11/29 13:55:43;;;;;;;0.00;0.00;;;;;;;;;;5013603;28;20030;-79
2022/11/29 13:58:31;;;;;;;0.00;0.00;;;;;;;;;;5017835;28;20033;-79
2022/11/29 14:01:05;;;;;;;0.00;0.00;;;;;;;;;;5008611;28;20141;-80
2022/11/29 14:03:34;;;;;;;0.00;0.00;;;;;;;;;;5010343;28;20065;-79
2022/11/29 14:06:01;;;;;;;0.00;0.00;;;;;;;;;;4998298;28;20075;-79
2022/11/29 14:08:31;;;;;;;0.00;0.00;;;;;;;;;;5016099;28;20018;-80
2022/11/29 14:11:08;;;;;;;0.00;0.00;;;;;;;;;;5009985;28;20021;-79
2022/11/29 14:13:48;;;;;;;0.00;0.00;;;;;;;;;;5024007;28;20073;-78
2022/11/29 14:16:20;;;;;;;0.00;0.00;;;;;;;;;;5045458;28;20040;-78
2022/11/29 14:18:48;;;;;;;0.00;0.00;;;;;;;;;;5013373;28;20109;-81
2022/11/29 14:21:15;;;;;;;0.00;0.00;;;;;;;;;;5027228;28;20132;-78
2022/11/29 14:23:42;;;;;;;0.00;0.00;;;;;;;;;;5026859;28;20021;-80
2022/11/29 14:26:08;;;;;;;0.00;0.00;;;;;;;;;;5018123;28;20494;-80
2022/11/29 14:28:37;;;;;;;0.00;0.00;;;;;;;;;;5016449;28;20468;-80
2022/11/29 14:31:04;;;;;;;0.00;0.00;;;;;;;;;;5013342;28;20033;-78
2022/11/29 14:33:55;;;;;;;0.00;0.00;;;;;;;;;;5013879;28;20060;-79
2022/11/29 14:36:47;;;;;;;0.00;0.00;;;;;;;;;;5013719;28;20059;-78
2022/11/29 14:39:24;;;;;;;0.00;0.00;;;;;;;;;;5005123;28;20057;-79
2022/11/29 14:41:50;;;;;;;0.00;0.00;;;;;;;;;;5024627;28;20034;-78
2022/11/29 14:44:20;;;;;;;0.00;0.00;;;;;;;;;;5022079;28;20110;-83
2022/11/29 14:46:47;;;;;;;0.00;0.00;;;;;;;;;;5024694;28;20029;-77
2022/11/29 14:49:21;;;;;;;0.00;0.00;;;;;;;;;;4997711;28;20543;-77
2022/11/29 14:52:06;;;;;;;0.00;0.00;;;;;;;;;;4997353;28;20026;-76
2022/11/29 14:54:34;;;;;;;0.00;0.00;;;;;;;;;;4996834;28;20033;-75
2022/11/29 14:57:38;;;;;;;0.00;0.00;;;;;;;;;;4997472;28;20029;-75
2022/11/29 15:00:09;;;;;;;0.00;0.00;;;;;;;;;;5023358;28;20030;-75
2022/11/29 15:02:40;;;;;;;0.00;0.00;;;;;;;;;;4997069;28;20034;-74
2022/11/29 15:05:12;;;;;;;0.00;0.00;;;;;;;;;;4996903;28;20026;-75
2022/11/29 15:07:42;;;;;;;0.00;0.00;;;;;;;;;;5032135;28;20209;-75
2022/11/29 15:10:15;;;;;;;0.00;0.00;;;;;;;;;;5012266;28;20472;-74
2022/11/29 15:12:42;;;;;;;0.00;0.00;;;;;;;;;;5033050;28;20498;-74
2022/11/29 15:15:31;;;;;;;0.00;0.00;;;;;;;;;;5016423;28;20061;-75
2022/11/29 15:18:18;;;;;;;0.00;0.00;;;;;;;;;;5030160;28;20037;-75
2022/11/29 15:20:56;;;;;;;0.00;0.00;;;;;;;;;;5031967;28;20112;-75
2022/11/29 15:23:22;;;;;;;0.00;0.00;;;;;;;;;;5015808;28;20038;-78
2022/11/29 15:25:53;;;;;;;0.00;0.00;;;;;;;;;;5027332;28;20040;-76
2022/11/29 15:28:26;;;;;;;0.00;0.00;;;;;;;;;;5024433;28;20615;-74
2022/11/29 15:31:04;;;;;;;0.00;0.00;;;;;;;;;;5016199;28;20022;-75
2022/11/29 15:33:31;;;;;;;0.00;0.00;;;;;;;;;;5021034;28;20056;-76